Piedmont Triad International Airport Greensboro US
ICAO: KGSO
IATA: GSO
Category: Large
Scheduled Services: Yes

Elevation: 925 ft
TransAlt. 18000 ft.

Airport Communications:
APP/DEP:118.5
ATIS:128.55
CLNC DEL:121.75
GND:121.9
TWR:119.1
UNICOM:122.95

KGSO Zoom In..

If Map Doesn't Load, Click Here

Runways:

(A) RW 05L length 9000 ft width 150 ft
ILS 109.55 / hdg 54

(B) RW 05R length 10001 ft width 150 ft
ILS 111.90 / hdg 54

(C) RW 14 length 6380 ft width 150 ft
ILS 109.90 / hdg 143

(D) RW 23L length 10001 ft width 150 ft
ILS 109.30 / hdg 234

(E) RW 23R length 9000 ft width 150 ft
ILS 109.55 / hdg 234

(F) RW 32 length 6380 ft width 150 ft
---- / hdg 323

Location; KGSO
Day. 21 / Time. 13.40 Zulu
* Altimeter: 30.24
* Temperature: 24° c. 75.2°f.
* Wind from: 220° Speed 10 kn.
Dewpoint: 22° c.
Visibility: 10 Statute Miles.
Clouds: Broken 1100 ft.
Clouds: Broken 12000 ft.

KGSO 211340Z 22010KT 10SM BKN011 BKN120 24/22 A3024 RMK AO2 T02440217


Wind From 220°
Speed 10 kn.

 
 
jpsmedia.com for Web Design worldairports.se 2018   terms of use